Time;durP1;ratioP1;P1;durP2;ratioP2;P2;SDS_P1;SDS_P2;PMS_P1;PMS_P2;Temp;Humidity;BMP_temperature;BMP_pressure;BME280_temperature;BME280_humidity;BME280_pressure;Samples;Min_cycle;Max_cycle;Signal;HPM_P1;HPM_P2
2021/04/23 00:01:40;;;;;;;37.92;29.55;;;;;;;;;;6095890;29;20128;-76
2021/04/23 00:04:41;;;;;;;37.42;28.65;;;;;;;;;;6088042;29;20626;-76
2021/04/23 00:07:42;;;;;;;36.30;28.70;;;;;;;;;;6093579;29;20072;-74
2021/04/23 00:10:45;;;;;;;35.03;27.98;;;;;;;;;;6097232;29;20082;-73
2021/04/23 00:13:46;;;;;;;34.95;27.60;;;;;;;;;;6097275;29;20082;-73
2021/04/23 00:16:49;;;;;;;36.17;27.92;;;;;;;;;;6098284;29;20052;-76
2021/04/23 00:19:51;;;;;;;33.80;27.30;;;;;;;;;;6095776;29;20071;-74
2021/04/23 00:22:52;;;;;;;41.20;28.25;;;;;;;;;;6086323;29;20098;-75
2021/04/23 00:25:54;;;;;;;36.05;27.58;;;;;;;;;;6095593;29;20740;-76
2021/04/23 00:28:55;;;;;;;34.78;28.10;;;;;;;;;;6093624;29;20483;-77
2021/04/23 00:35:16;;;;;;;37.78;27.05;;;;;;;;;;6096330;29;20601;-75
2021/04/23 00:38:21;;;;;;;35.75;27.20;;;;;;;;;;6094179;29;20627;-75
2021/04/23 00:41:25;;;;;;;33.95;26.15;;;;;;;;;;6095852;29;20048;-74
2021/04/23 00:44:26;;;;;;;33.97;27.40;;;;;;;;;;6095165;29;20176;-78
2021/04/23 00:47:27;;;;;;;34.40;26.52;;;;;;;;;;6093112;29;20068;-76
2021/04/23 00:50:33;;;;;;;33.92;27.23;;;;;;;;;;6096703;29;20076;-78
2021/04/23 00:53:36;;;;;;;34.60;27.33;;;;;;;;;;6094418;29;20147;-79
2021/04/23 00:56:40;;;;;;;35.58;26.95;;;;;;;;;;6095175;29;20180;-77
2021/04/23 00:59:41;;;;;;;34.35;26.77;;;;;;;;;;6091937;29;20083;-77
2021/04/23 01:02:42;;;;;;;31.67;26.05;;;;;;;;;;6112524;23;20547;-76
2021/04/23 01:05:47;;;;;;;35.63;26.77;;;;;;;;;;6073889;29;20047;-78
2021/04/23 01:08:49;;;;;;;35.22;26.38;;;;;;;;;;6089077;29;20059;-76
2021/04/23 01:11:53;;;;;;;35.40;26.90;;;;;;;;;;6083202;29;20695;-76
2021/04/23 01:14:54;;;;;;;34.88;27.70;;;;;;;;;;6085082;29;20748;-76
2021/04/23 01:17:55;;;;;;;36.38;26.85;;;;;;;;;;6085229;29;20079;-76
2021/04/23 01:21:04;;;;;;;36.35;27.40;;;;;;;;;;6085076;29;20155;-76
2021/04/23 01:24:07;;;;;;;33.83;27.80;;;;;;;;;;6091415;29;20146;-76
2021/04/23 01:27:08;;;;;;;38.67;28.47;;;;;;;;;;6091163;29;20084;-76
2021/04/23 01:30:11;;;;;;;35.20;27.95;;;;;;;;;;6093362;29;20483;-76
2021/04/23 01:33:12;;;;;;;37.00;27.77;;;;;;;;;;6084824;29;20159;-76
2021/04/23 01:36:14;;;;;;;36.95;28.40;;;;;;;;;;6082035;29;20605;-76
2021/04/23 01:39:18;;;;;;;36.60;28.00;;;;;;;;;;6082192;29;20127;-76
2021/04/23 01:42:19;;;;;;;37.90;27.63;;;;;;;;;;6086231;29;20131;-76
2021/04/23 01:45:20;;;;;;;38.00;28.00;;;;;;;;;;6084549;29;20111;-76
2021/04/23 01:48:21;;;;;;;33.42;27.58;;;;;;;;;;6089601;29;20072;-76
2021/04/23 01:51:23;;;;;;;35.38;27.17;;;;;;;;;;6089211;29;20083;-76
2021/04/23 01:54:26;;;;;;;35.72;28.65;;;;;;;;;;6089804;29;20135;-76
2021/04/23 01:57:27;;;;;;;37.83;27.98;;;;;;;;;;6088279;29;20086;-76
2021/04/23 02:00:31;;;;;;;36.08;29.45;;;;;;;;;;6093082;29;20052;-76
2021/04/23 02:03:32;;;;;;;39.05;27.98;;;;;;;;;;6093846;29;20079;-76
2021/04/23 02:06:35;;;;;;;37.30;28.15;;;;;;;;;;6093274;29;20056;-76
2021/04/23 02:09:36;;;;;;;39.75;29.05;;;;;;;;;;6094708;29;20138;-76
2021/04/23 02:12:37;;;;;;;35.67;27.25;;;;;;;;;;6086763;29;20139;-76
2021/04/23 02:15:38;;;;;;;36.75;28.30;;;;;;;;;;6087094;29;20131;-76
2021/04/23 02:18:40;;;;;;;38.75;29.27;;;;;;;;;;6085160;29;20155;-76
2021/04/23 02:21:43;;;;;;;39.55;28.52;;;;;;;;;;6085502;29;20776;-76
2021/04/23 02:24:44;;;;;;;38.75;29.40;;;;;;;;;;6082094;29;20106;-76
2021/04/23 02:27:45;;;;;;;37.90;28.63;;;;;;;;;;6084911;29;20139;-76
2021/04/23 02:30:50;;;;;;;36.72;28.20;;;;;;;;;;6088657;29;20090;-76
2021/04/23 02:33:53;;;;;;;37.33;28.23;;;;;;;;;;6084634;29;20164;-77
2021/04/23 02:36:55;;;;;;;40.47;29.63;;;;;;;;;;6091487;29;20814;-76
2021/04/23 02:39:57;;;;;;;41.17;29.20;;;;;;;;;;6091160;29;20172;-76
2021/04/23 02:43:01;;;;;;;37.00;28.73;;;;;;;;;;6094491;29;20052;-76
2021/04/23 02:46:02;;;;;;;40.30;30.88;;;;;;;;;;6093319;29;20107;-76
2021/04/23 02:49:05;;;;;;;38.78;29.25;;;;;;;;;;6093085;29;21624;-76
2021/04/23 02:52:07;;;;;;;40.17;30.25;;;;;;;;;;6092875;29;20049;-76
2021/04/23 02:55:10;;;;;;;40.45;29.83;;;;;;;;;;6092288;29;20205;-76
2021/04/23 02:58:14;;;;;;;42.75;29.63;;;;;;;;;;6091000;29;20047;-76
2021/04/23 03:01:18;;;;;;;41.90;30.20;;;;;;;;;;6094200;29;20087;-75
2021/04/23 03:04:20;;;;;;;45.78;32.60;;;;;;;;;;6093085;29;20147;-76
2021/04/23 03:07:22;;;;;;;44.17;34.20;;;;;;;;;;6092865;29;20071;-76
2021/04/23 03:10:25;;;;;;;41.08;31.52;;;;;;;;;;6094776;29;20646;-75
2021/04/23 03:13:28;;;;;;;41.43;31.20;;;;;;;;;;6089167;29;20045;-76
2021/04/23 03:16:30;;;;;;;47.50;32.10;;;;;;;;;;6089283;29;20056;-75
2021/04/23 03:19:31;;;;;;;41.55;30.77;;;;;;;;;;6082259;29;20483;-75
2021/04/23 03:22:33;;;;;;;38.05;29.98;;;;;;;;;;6084560;29;20176;-76
2021/04/23 03:25:35;;;;;;;45.35;32.28;;;;;;;;;;6092764;29;20186;-76
2021/04/23 03:28:37;;;;;;;40.15;30.20;;;;;;;;;;6094063;29;20063;-76
2021/04/23 03:31:38;;;;;;;41.13;29.52;;;;;;;;;;6087473;29;20052;-76
2021/04/23 03:34:40;;;;;;;42.92;31.05;;;;;;;;;;6090134;29;20361;-76
2021/04/23 03:37:44;;;;;;;38.40;30.02;;;;;;;;;;6089963;29;20048;-76
2021/04/23 03:40:46;;;;;;;41.65;31.05;;;;;;;;;;6087510;29;20059;-76
2021/04/23 03:43:48;;;;;;;40.13;30.42;;;;;;;;;;6090138;29;20108;-76
2021/04/23 03:46:49;;;;;;;42.42;31.02;;;;;;;;;;6089811;29;20084;-76
2021/04/23 03:49:51;;;;;;;46.83;30.90;;;;;;;;;;6094888;29;20081;-76
2021/04/23 03:52:54;;;;;;;44.05;31.02;;;;;;;;;;6096600;29;20063;-75
2021/04/23 03:55:55;;;;;;;39.85;30.10;;;;;;;;;;6092767;29;20068;-76
2021/04/23 03:58:57;;;;;;;39.38;29.83;;;;;;;;;;6093878;29;20067;-75
2021/04/23 04:01:58;;;;;;;42.10;30.13;;;;;;;;;;6094182;29;20048;-76
2021/04/23 04:04:59;;;;;;;44.30;30.02;;;;;;;;;;6097164;29;20076;-76
2021/04/23 04:08:01;;;;;;;39.92;30.58;;;;;;;;;;6101089;29;20060;-76
2021/04/23 04:11:04;;;;;;;42.20;32.30;;;;;;;;;;6100949;29;20071;-75
2021/04/23 04:14:05;;;;;;;44.15;31.52;;;;;;;;;;6101023;29;20515;-76
2021/04/23 04:17:06;;;;;;;42.60;30.83;;;;;;;;;;6081376;29;20044;-76
2021/04/23 04:20:11;;;;;;;44.05;31.05;;;;;;;;;;6073027;29;20100;-75
2021/04/23 04:23:17;;;;;;;45.10;32.13;;;;;;;;;;6099569;29;20510;-75
2021/04/23 04:26:18;;;;;;;43.25;30.45;;;;;;;;;;6102875;29;20565;-75
2021/04/23 04:29:19;;;;;;;42.85;31.58;;;;;;;;;;6099429;29;20135;-75
2021/04/23 04:32:20;;;;;;;43.20;30.58;;;;;;;;;;6087574;29;20056;-75
2021/04/23 04:35:23;;;;;;;44.28;31.17;;;;;;;;;;6100553;29;20099;-75
2021/04/23 04:38:25;;;;;;;42.53;30.63;;;;;;;;;;6103066;29;20091;-75
2021/04/23 04:41:26;;;;;;;42.97;30.00;;;;;;;;;;6099852;29;20048;-75
2021/04/23 04:44:28;;;;;;;45.53;30.88;;;;;;;;;;6100686;29;20070;-75
2021/04/23 04:47:30;;;;;;;45.08;30.40;;;;;;;;;;6100940;29;20151;-75
2021/04/23 04:50:33;;;;;;;41.95;30.20;;;;;;;;;;6099472;29;20095;-75
2021/04/23 04:53:35;;;;;;;45.05;30.27;;;;;;;;;;6099879;29;20044;-75
2021/04/23 04:56:36;;;;;;;40.22;31.00;;;;;;;;;;6099914;29;20056;-75
2021/04/23 04:59:38;;;;;;;41.33;29.60;;;;;;;;;;6101432;29;20072;-75
2021/04/23 05:02:39;;;;;;;41.28;29.33;;;;;;;;;;6095508;29;20044;-75
2021/04/23 05:05:41;;;;;;;42.63;30.25;;;;;;;;;;6089632;29;20055;-75
2021/04/23 05:08:43;;;;;;;40.22;29.00;;;;;;;;;;6097085;29;20076;-76
2021/04/23 05:11:44;;;;;;;46.92;30.13;;;;;;;;;;6097988;29;20048;-75
2021/04/23 05:14:46;;;;;;;38.35;29.60;;;;;;;;;;6097513;29;20059;-75
2021/04/23 05:17:48;;;;;;;40.28;28.60;;;;;;;;;;6096779;29;20044;-75
2021/04/23 05:20:49;;;;;;;45.38;29.98;;;;;;;;;;6093902;29;20052;-75
2021/04/23 05:23:51;;;;;;;47.05;30.40;;;;;;;;;;6096235;29;20067;-75
2021/04/23 05:26:52;;;;;;;36.58;27.95;;;;;;;;;;6092739;29;20044;-75
2021/04/23 05:29:53;;;;;;;43.97;28.92;;;;;;;;;;6085227;29;20486;-76
2021/04/23 05:32:55;;;;;;;41.28;27.92;;;;;;;;;;6087070;29;20063;-75
2021/04/23 05:35:56;;;;;;;37.78;27.88;;;;;;;;;;6091449;29;20044;-75
2021/04/23 05:38:58;;;;;;;39.80;30.02;;;;;;;;;;6088695;29;21530;-75
2021/04/23 05:41:59;;;;;;;37.08;28.00;;;;;;;;;;6093682;29;20052;-75
2021/04/23 05:45:01;;;;;;;39.28;27.38;;;;;;;;;;6094414;29;20052;-75
2021/04/23 05:48:03;;;;;;;45.38;28.00;;;;;;;;;;6099653;29;20047;-75
2021/04/23 05:51:05;;;;;;;38.25;26.48;;;;;;;;;;6099634;29;20084;-75
2021/04/23 05:54:07;;;;;;;39.55;26.88;;;;;;;;;;6101890;29;20048;-75
2021/04/23 05:57:08;;;;;;;38.45;26.48;;;;;;;;;;6098991;29;20059;-75
2021/04/23 06:00:13;;;;;;;33.97;25.08;;;;;;;;;;6097671;29;20048;-75
2021/04/23 06:03:17;;;;;;;36.40;24.00;;;;;;;;;;6101184;29;20048;-75
2021/04/23 06:06:18;;;;;;;35.42;23.80;;;;;;;;;;6099017;29;20052;-75
2021/04/23 06:09:20;;;;;;;35.78;23.50;;;;;;;;;;6095058;29;20059;-75
2021/04/23 06:12:21;;;;;;;36.80;24.63;;;;;;;;;;6096778;29;20519;-75
2021/04/23 06:15:23;;;;;;;35.88;23.55;;;;;;;;;;6100575;29;20059;-75
2021/04/23 06:18:24;;;;;;;29.27;21.77;;;;;;;;;;6101408;29;20122;-75
2021/04/23 06:21:25;;;;;;;39.33;21.60;;;;;;;;;;6097341;29;20075;-75
2021/04/23 06:24:27;;;;;;;28.05;20.30;;;;;;;;;;6094625;29;20052;-75
2021/04/23 06:27:29;;;;;;;24.45;19.90;;;;;;;;;;6094779;29;20418;-74
2021/04/23 06:30:34;;;;;;;31.80;20.38;;;;;;;;;;6092196;29;20071;-74
2021/04/23 06:33:38;;;;;;;31.27;19.83;;;;;;;;;;6086055;29;20312;-75
2021/04/23 06:36:40;;;;;;;23.08;19.00;;;;;;;;;;6088950;29;20099;-76
2021/04/23 06:39:42;;;;;;;27.23;19.73;;;;;;;;;;6084639;29;20044;-75
2021/04/23 06:42:43;;;;;;;27.92;19.60;;;;;;;;;;6091751;29;20095;-75
2021/04/23 06:45:45;;;;;;;24.75;19.00;;;;;;;;;;6093397;29;20098;-76
2021/04/23 06:48:47;;;;;;;25.00;19.55;;;;;;;;;;6094596;29;20727;-76
2021/04/23 06:51:48;;;;;;;23.77;17.55;;;;;;;;;;6095863;29;20123;-76
2021/04/23 06:54:50;;;;;;;23.80;16.88;;;;;;;;;;6095313;29;20051;-76
2021/04/23 06:57:52;;;;;;;28.55;19.35;;;;;;;;;;6090477;29;20480;-76
2021/04/23 07:00:53;;;;;;;22.75;18.30;;;;;;;;;;6090380;29;20075;-76
2021/04/23 07:03:54;;;;;;;25.42;17.83;;;;;;;;;;6093111;29;20131;-76
2021/04/23 07:06:55;;;;;;;28.73;18.27;;;;;;;;;;6083587;29;20107;-76
2021/04/23 07:09:57;;;;;;;25.50;18.23;;;;;;;;;;6086779;29;20078;-76
2021/04/23 07:12:59;;;;;;;23.95;18.50;;;;;;;;;;6090068;29;20060;-76
2021/04/23 07:16:00;;;;;;;27.92;18.08;;;;;;;;;;6091358;29;20709;-76
2021/04/23 07:19:01;;;;;;;29.15;18.85;;;;;;;;;;6091691;29;20104;-76
2021/04/23 07:22:02;;;;;;;27.15;19.30;;;;;;;;;;6093292;29;20059;-76
2021/04/23 07:25:05;;;;;;;27.80;19.27;;;;;;;;;;6091230;29;20511;-76
2021/04/23 07:28:07;;;;;;;22.17;17.48;;;;;;;;;;6091802;29;20079;-77
2021/04/23 07:31:08;;;;;;;28.35;20.05;;;;;;;;;;6089206;29;20136;-75
2021/04/23 07:34:10;;;;;;;30.90;19.63;;;;;;;;;;6079068;29;20139;-75
2021/04/23 07:37:11;;;;;;;24.83;16.75;;;;;;;;;;6071490;29;20076;-75
2021/04/23 07:40:17;;;;;;;24.95;19.13;;;;;;;;;;6077517;29;20071;-75
2021/04/23 07:43:18;;;;;;;25.23;18.35;;;;;;;;;;6093976;29;20060;-75
2021/04/23 07:46:19;;;;;;;26.13;18.40;;;;;;;;;;6086260;29;20587;-75
2021/04/23 07:49:20;;;;;;;22.65;18.08;;;;;;;;;;6088957;29;20751;-75
2021/04/23 07:52:21;;;;;;;27.20;18.45;;;;;;;;;;6090737;29;20101;-76
2021/04/23 07:55:24;;;;;;;21.50;17.45;;;;;;;;;;6094169;29;20068;-75
2021/04/23 07:58:25;;;;;;;29.58;18.50;;;;;;;;;;6089717;29;20115;-75
2021/04/23 08:01:26;;;;;;;24.88;17.65;;;;;;;;;;6082891;28;20138;-75
2021/04/23 08:04:27;;;;;;;27.35;18.20;;;;;;;;;;6054599;29;20091;-75
2021/04/23 08:07:28;;;;;;;25.08;18.27;;;;;;;;;;6081976;29;20462;-75
2021/04/23 08:10:31;;;;;;;25.33;17.65;;;;;;;;;;6089595;29;20084;-75
2021/04/23 08:13:32;;;;;;;24.10;18.63;;;;;;;;;;6091321;29;20092;-76
2021/04/23 08:16:33;;;;;;;27.38;20.33;;;;;;;;;;6095960;29;20064;-75
2021/04/23 08:19:35;;;;;;;24.17;18.48;;;;;;;;;;6092757;29;20100;-75
2021/04/23 08:22:37;;;;;;;24.38;19.92;;;;;;;;;;6094385;29;20158;-76
2021/04/23 08:25:39;;;;;;;27.77;19.30;;;;;;;;;;6094759;29;20055;-76
2021/04/23 08:28:41;;;;;;;22.90;19.45;;;;;;;;;;6096249;29;20087;-76
2021/04/23 08:31:45;;;;;;;23.20;18.15;;;;;;;;;;6098881;29;20055;-76
2021/04/23 08:34:46;;;;;;;23.17;19.42;;;;;;;;;;6093188;29;20052;-76
2021/04/23 08:37:47;;;;;;;27.67;18.63;;;;;;;;;;6100569;29;20099;-76
2021/04/23 08:40:49;;;;;;;25.17;19.05;;;;;;;;;;6094620;29;20492;-76
2021/04/23 08:43:50;;;;;;;26.92;20.25;;;;;;;;;;6100057;29;20056;-76
2021/04/23 08:46:52;;;;;;;22.90;18.52;;;;;;;;;;6100627;29;20048;-76
2021/04/23 08:49:57;;;;;;;23.52;17.98;;;;;;;;;;6099410;29;20063;-76
2021/04/23 08:52:58;;;;;;;21.50;18.30;;;;;;;;;;6099320;29;20071;-76
2021/04/23 08:56:02;;;;;;;24.48;18.80;;;;;;;;;;6100806;29;20044;-76
2021/04/23 08:59:03;;;;;;;22.38;17.35;;;;;;;;;;6093397;29;20063;-76
2021/04/23 09:02:05;;;;;;;20.77;17.73;;;;;;;;;;6097630;29;20063;-76
2021/04/23 09:05:07;;;;;;;22.02;16.70;;;;;;;;;;6098687;29;20058;-76
2021/04/23 09:08:11;;;;;;;21.88;16.83;;;;;;;;;;6098640;29;20052;-76
2021/04/23 09:11:16;;;;;;;;;;;;;;;;;;6098809;29;20388;-76
2021/04/23 09:14:20;;;;;;;21.50;17.20;;;;;;;;;;6101501;29;20018;-77
2021/04/23 09:17:23;;;;;;;19.75;17.02;;;;;;;;;;6095209;29;20103;-76
2021/04/23 09:20:27;;;;;;;23.42;16.67;;;;;;;;;;6099455;29;20480;-76
2021/04/23 09:23:29;;;;;;;20.17;15.85;;;;;;;;;;6095827;29;20044;-76
2021/04/23 09:26:33;;;;;;;18.30;15.07;;;;;;;;;;6098119;29;20864;-76
2021/04/23 09:29:36;;;;;;;17.90;15.38;;;;;;;;;;6096165;29;20531;-77
2021/04/23 09:32:38;;;;;;;16.33;14.50;;;;;;;;;;6095690;29;20055;-76
2021/04/23 09:35:40;;;;;;;20.88;15.88;;;;;;;;;;6095870;29;20040;-76
2021/04/23 09:38:43;;;;;;;19.80;16.42;;;;;;;;;;6098516;29;20403;-76
2021/04/23 09:41:47;;;;;;;20.92;14.77;;;;;;;;;;6093902;29;20056;-75
2021/04/23 09:44:49;;;;;;;17.70;15.05;;;;;;;;;;6096704;29;20407;-76
2021/04/23 09:47:51;;;;;;;18.13;15.48;;;;;;;;;;6097730;29;20051;-76
2021/04/23 09:50:55;;;;;;;17.73;14.90;;;;;;;;;;6095330;29;20443;-76
2021/04/23 09:54:10;;;;;;;;;;;;;;;;;;6093894;29;20083;-75
2021/04/23 09:57:15;;;;;;;17.52;14.00;;;;;;;;;;6095192;29;19974;-75
2021/04/23 10:00:17;;;;;;;16.38;13.35;;;;;;;;;;6091219;29;20058;-75
2021/04/23 10:03:18;;;;;;;15.27;13.63;;;;;;;;;;6089119;29;20056;-75
2021/04/23 10:06:20;;;;;;;17.52;14.18;;;;;;;;;;6095634;29;20072;-75
2021/04/23 10:09:22;;;;;;;17.42;14.07;;;;;;;;;;6095278;29;20088;-75
2021/04/23 10:12:42;;;;;;;15.15;13.13;;;;;;;;;;6095409;29;20091;-76
2021/04/23 10:15:44;;;;;;;18.67;14.13;;;;;;;;;;6091907;29;20048;-75
2021/04/23 10:18:46;;;;;;;13.70;12.30;;;;;;;;;;6092746;29;20428;-75
2021/04/23 10:21:47;;;;;;;14.52;13.02;;;;;;;;;;6094930;29;20056;-76
2021/04/23 10:24:49;;;;;;;16.67;13.07;;;;;;;;;;6095597;29;20062;-76
2021/04/23 10:27:52;;;;;;;17.60;13.13;;;;;;;;;;6095064;29;20084;-76
2021/04/23 10:30:54;;;;;;;;;;;;;;;;;;6090472;29;20056;-76
2021/04/23 10:33:56;;;;;;;14.10;12.60;;;;;;;;;;6076890;29;19928;-76
2021/04/23 10:36:57;;;;;;;17.63;14.02;;;;;;;;;;6082096;29;20052;-76
2021/04/23 10:39:59;;;;;;;18.33;13.27;;;;;;;;;;6090202;29;20112;-76
2021/04/23 10:43:04;;;;;;;16.60;13.90;;;;;;;;;;6087804;29;20439;-76
2021/04/23 10:46:09;;;;;;;18.33;13.55;;;;;;;;;;6084888;29;20059;-75
2021/04/23 10:49:11;;;;;;;14.93;12.27;;;;;;;;;;6088277;29;20080;-75
2021/04/23 10:52:12;;;;;;;15.40;12.15;;;;;;;;;;6090507;29;20060;-76
2021/04/23 10:55:13;;;;;;;17.17;12.73;;;;;;;;;;6082345;29;20103;-76
2021/04/23 10:58:18;;;;;;;17.20;14.45;;;;;;;;;;6089658;29;20087;-76
2021/04/23 11:01:37;;;;;;;15.20;13.60;;;;;;;;;;6087280;29;20068;-77
2021/04/23 11:04:55;;;;;;;16.65;14.77;;;;;;;;;;6089337;29;20052;-76
2021/04/23 11:08:08;;;;;;;17.75;13.98;;;;;;;;;;6090262;29;20051;-76
2021/04/23 11:11:18;;;;;;;;;;;;;;;;;;6054372;29;20051;-76
2021/04/23 11:14:23;;;;;;;15.27;13.68;;;;;;;;;;6091200;29;19923;-75
2021/04/23 11:17:32;;;;;;;16.02;14.43;;;;;;;;;;6090513;29;20495;-77
2021/04/23 11:20:35;;;;;;;19.90;14.57;;;;;;;;;;6091378;29;20092;-76
2021/04/23 11:24:06;;;;;;;18.90;14.30;;;;;;;;;;6096613;29;20056;-76
2021/04/23 11:27:10;;;;;;;16.42;12.45;;;;;;;;;;6096128;29;20482;-76
2021/04/23 11:30:24;;;;;;;13.95;12.40;;;;;;;;;;6101562;29;20052;-80
2021/04/23 11:33:56;;;;;;;16.38;14.73;;;;;;;;;;6099806;29;20047;-79
2021/04/23 11:37:02;;;;;;;17.48;14.95;;;;;;;;;;6078357;29;20048;-79
2021/04/23 11:40:22;;;;;;;15.45;13.75;;;;;;;;;;6106888;29;20103;-78
2021/04/23 11:43:47;;;;;;;14.63;13.05;;;;;;;;;;6107972;29;20054;-78
2021/04/23 11:46:54;;;;;;;16.60;14.82;;;;;;;;;;6100285;29;20479;-78
2021/04/23 11:50:09;;;;;;;15.27;12.98;;;;;;;;;;6092565;29;20048;-79
2021/04/23 11:53:15;;;;;;;15.63;13.60;;;;;;;;;;6103387;29;20060;-79
2021/04/23 11:56:16;;;;;;;16.98;13.88;;;;;;;;;;6089951;29;20060;-79
2021/04/23 11:59:18;;;;;;;19.00;15.45;;;;;;;;;;6067719;29;20053;-79
2021/04/23 12:02:52;;;;;;;16.23;14.35;;;;;;;;;;6108918;29;20060;-79
2021/04/23 12:05:55;;;;;;;19.83;14.18;;;;;;;;;;6107138;29;20068;-79
2021/04/23 12:08:57;;;;;;;19.42;14.50;;;;;;;;;;6101013;29;20059;-79
2021/04/23 12:12:10;;;;;;;16.15;14.52;;;;;;;;;;6108570;29;20056;-79
2021/04/23 12:15:25;;;;;;;18.98;14.15;;;;;;;;;;6104012;29;20048;-79
2021/04/23 12:18:27;;;;;;;16.02;13.95;;;;;;;;;;6097397;29;20481;-80
2021/04/23 12:21:30;;;;;;;14.75;13.15;;;;;;;;;;6108497;29;20060;-79
2021/04/23 12:24:31;;;;;;;16.20;14.60;;;;;;;;;;6104186;29;20064;-80
2021/04/23 12:27:32;;;;;;;17.55;14.13;;;;;;;;;;6098570;29;20431;-79
2021/04/23 12:30:34;;;;;;;14.77;13.13;;;;;;;;;;6105603;29;20318;-79
2021/04/23 12:33:44;;;;;;;19.08;14.23;;;;;;;;;;6105330;29;20044;-80
2021/04/23 12:36:47;;;;;;;15.10;13.23;;;;;;;;;;6105007;29;20048;-79
2021/04/23 12:39:49;;;;;;;14.25;12.57;;;;;;;;;;6109779;29;20059;-79
2021/04/23 12:42:56;;;;;;;15.70;14.00;;;;;;;;;;6103924;29;20056;-79
2021/04/23 12:45:57;;;;;;;14.77;11.18;;;;;;;;;;6098066;29;20057;-80
2021/04/23 12:49:02;;;;;;;14.88;12.65;;;;;;;;;;6098024;29;20060;-79
2021/04/23 12:52:13;;;;;;;14.65;13.02;;;;;;;;;;6096158;29;20460;-79
2021/04/23 12:55:14;;;;;;;14.82;13.18;;;;;;;;;;6101959;29;20060;-79
2021/04/23 12:58:19;;;;;;;13.65;12.15;;;;;;;;;;6102777;29;20054;-78
2021/04/23 13:01:20;;;;;;;12.60;11.35;;;;;;;;;;6096480;29;20072;-78
2021/04/23 13:04:22;;;;;;;13.27;11.88;;;;;;;;;;6099669;29;20068;-78
2021/04/23 13:07:24;;;;;;;18.58;11.73;;;;;;;;;;6099178;29;20542;-79
2021/04/23 13:10:27;;;;;;;16.03;11.10;;;;;;;;;;6095760;29;20059;-77
2021/04/23 13:13:28;;;;;;;;;;;;;;;;;;6097669;29;20419;-78
2021/04/23 13:16:29;;;;;;;12.57;11.27;;;;;;;;;;6094505;29;19931;-77
2021/04/23 13:19:37;;;;;;;14.40;10.65;;;;;;;;;;6098276;29;20075;-76
2021/04/23 13:22:46;;;;;;;13.23;11.57;;;;;;;;;;6092159;29;20071;-77
2021/04/23 13:25:47;;;;;;;11.43;10.25;;;;;;;;;;6099929;29;20052;-77
2021/04/23 13:28:55;;;;;;;11.57;10.18;;;;;;;;;;6103264;29;20067;-77
2021/04/23 13:32:00;;;;;;;13.23;10.07;;;;;;;;;;6082992;29;20456;-80
2021/04/23 13:35:01;;;;;;;12.20;10.63;;;;;;;;;;6086080;29;20052;-77
2021/04/23 13:38:28;;;;;;;12.00;10.60;;;;;;;;;;6094129;29;20116;-77
2021/04/23 13:41:31;;;;;;;14.15;12.77;;;;;;;;;;6090311;29;20158;-79
2021/04/23 13:44:32;;;;;;;;;;;;;;;;;;6086700;29;20381;-77
2021/04/23 13:47:37;;;;;;;16.65;13.93;;;;;;;;;;6090052;29;19923;-77
2021/04/23 13:50:38;;;;;;;14.77;12.68;;;;;;;;;;6095424;29;20061;-77
2021/04/23 13:53:41;;;;;;;15.25;12.18;;;;;;;;;;6101885;29;20059;-78
2021/04/23 13:56:43;;;;;;;17.10;13.77;;;;;;;;;;6103995;29;20080;-77
2021/04/23 13:59:47;;;;;;;17.40;14.17;;;;;;;;;;6103235;29;20059;-77
2021/04/23 14:02:58;;;;;;;15.65;14.02;;;;;;;;;;6091950;29;20084;-76
2021/04/23 14:05:59;;;;;;;13.48;12.18;;;;;;;;;;6088662;29;20048;-77
2021/04/23 14:09:02;;;;;;;16.30;12.38;;;;;;;;;;6079122;29;20052;-77
2021/04/23 14:12:04;;;;;;;;;;;;;;;;;;6084152;29;20283;-77
2021/04/23 14:15:06;;;;;;;13.57;12.27;;;;;;;;;;6084925;29;20298;-77
2021/04/23 14:18:08;;;;;;;;;;;;;;;;;;6096905;29;20107;-77
2021/04/23 14:21:09;;;;;;;13.60;12.20;;;;;;;;;;6084377;29;20286;-80
2021/04/23 14:24:13;;;;;;;12.43;11.23;;;;;;;;;;6090271;29;20040;-77
2021/04/23 14:27:14;;;;;;;12.68;11.07;;;;;;;;;;6085123;29;20047;-77
2021/04/23 14:30:16;;;;;;;13.88;11.05;;;;;;;;;;6083354;29;20048;-79
2021/04/23 14:33:17;;;;;;;11.95;9.98;;;;;;;;;;6089687;29;20052;-78
2021/04/23 14:36:19;;;;;;;14.27;11.18;;;;;;;;;;6089564;29;20052;-78
2021/04/23 14:39:22;;;;;;;14.43;11.35;;;;;;;;;;6088673;29;20052;-78
2021/04/23 14:42:23;;;;;;;14.75;13.25;;;;;;;;;;6098712;29;20103;-79
2021/04/23 14:45:25;;;;;;;32.55;13.23;;;;;;;;;;6106275;29;20147;-80
2021/04/23 14:48:26;;;;;;;14.10;12.50;;;;;;;;;;6104500;29;20332;-80
2021/04/23 14:51:28;;;;;;;12.23;10.93;;;;;;;;;;6091504;29;20432;-79
2021/04/23 14:54:30;;;;;;;13.80;12.18;;;;;;;;;;6108645;29;20088;-80
2021/04/23 14:57:33;;;;;;;12.00;10.77;;;;;;;;;;6104309;29;20056;-80
2021/04/23 15:00:34;;;;;;;16.65;13.32;;;;;;;;;;6108784;29;20060;-80
2021/04/23 15:03:36;;;;;;;18.42;14.27;;;;;;;;;;6106952;29;20052;-80
2021/04/23 15:06:38;;;;;;;24.08;14.60;;;;;;;;;;6093299;29;20099;-79
2021/04/23 15:09:40;;;;;;;23.27;14.00;;;;;;;;;;6106975;29;20388;-80
2021/04/23 15:12:42;;;;;;;13.77;11.83;;;;;;;;;;6105617;29;20064;-80
2021/04/23 15:15:47;;;;;;;13.82;12.43;;;;;;;;;;6104826;29;20091;-80
2021/04/23 15:18:50;;;;;;;15.30;12.75;;;;;;;;;;6105463;29;20040;-79
2021/04/23 15:21:51;;;;;;;14.32;12.40;;;;;;;;;;6109028;29;20067;-80
2021/04/23 15:24:53;;;;;;;14.45;12.93;;;;;;;;;;6094530;29;20052;-80
2021/04/23 15:27:55;;;;;;;16.08;12.05;;;;;;;;;;6110669;29;20051;-76
2021/04/23 15:30:58;;;;;;;14.48;13.02;;;;;;;;;;6093721;29;20514;-76
2021/04/23 15:33:59;;;;;;;15.52;12.50;;;;;;;;;;6086242;29;20064;-76
2021/04/23 15:37:00;;;;;;;15.20;12.55;;;;;;;;;;6084914;29;20459;-76
2021/04/23 15:40:03;;;;;;;14.48;12.98;;;;;;;;;;6089853;29;20048;-76
2021/04/23 15:43:04;;;;;;;;;;;;;;;;;;6081111;29;20056;-74
2021/04/23 15:46:05;;;;;;;13.20;11.13;;;;;;;;;;6079597;29;19958;-74
2021/04/23 15:49:07;;;;;;;14.50;13.00;;;;;;;;;;6080241;29;20088;-76
2021/04/23 15:52:08;;;;;;;16.33;11.75;;;;;;;;;;6083673;29;20100;-78
2021/04/23 15:55:12;;;;;;;14.52;12.43;;;;;;;;;;6078218;29;20130;-74
2021/04/23 15:58:14;;;;;;;24.10;12.02;;;;;;;;;;6078622;29;20808;-74
2021/04/23 16:01:15;;;;;;;14.18;11.15;;;;;;;;;;6081615;29;20055;-74
2021/04/23 16:04:16;;;;;;;13.18;11.82;;;;;;;;;;6087449;29;20055;-74
2021/04/23 16:07:18;;;;;;;13.93;11.30;;;;;;;;;;6092468;29;20171;-74
2021/04/23 16:10:20;;;;;;;18.35;11.70;;;;;;;;;;6091039;29;20079;-75
2021/04/23 16:13:21;;;;;;;19.25;11.27;;;;;;;;;;6082478;29;20148;-75
2021/04/23 16:16:22;;;;;;;12.13;10.93;;;;;;;;;;6083517;29;20183;-75
2021/04/23 16:19:23;;;;;;;13.27;11.63;;;;;;;;;;6080394;29;20163;-75
2021/04/23 16:22:24;;;;;;;13.95;11.70;;;;;;;;;;6089656;29;20146;-75
2021/04/23 16:25:29;;;;;;;13.80;11.20;;;;;;;;;;6092103;29;20673;-74
2021/04/23 16:28:30;;;;;;;15.63;11.35;;;;;;;;;;6090966;29;20147;-73
2021/04/23 16:31:31;;;;;;;13.10;10.70;;;;;;;;;;6089994;29;20165;-73
2021/04/23 16:34:33;;;;;;;13.43;10.73;;;;;;;;;;6088109;29;20092;-72
2021/04/23 16:37:34;;;;;;;11.30;10.10;;;;;;;;;;6079125;29;20099;-74
2021/04/23 16:40:36;;;;;;;16.25;10.35;;;;;;;;;;6085123;29;20100;-75
2021/04/23 16:43:37;;;;;;;14.32;10.52;;;;;;;;;;6090049;29;20449;-74
2021/04/23 16:46:39;;;;;;;13.25;9.70;;;;;;;;;;6093314;29;20197;-72
2021/04/23 16:49:42;;;;;;;12.05;10.35;;;;;;;;;;6090295;29;20522;-75
2021/04/23 16:52:43;;;;;;;16.70;9.40;;;;;;;;;;6089517;29;20056;-74
2021/04/23 16:55:45;;;;;;;12.15;9.18;;;;;;;;;;6095106;29;20071;-74
2021/04/23 16:58:46;;;;;;;12.48;9.13;;;;;;;;;;6097023;29;20143;-74
2021/04/23 17:01:51;;;;;;;13.00;8.70;;;;;;;;;;6095497;29;20087;-74
2021/04/23 17:04:52;;;;;;;11.05;9.18;;;;;;;;;;6085995;29;20083;-74
2021/04/23 17:07:53;;;;;;;15.05;9.75;;;;;;;;;;6083885;29;20072;-74
2021/04/23 17:10:55;;;;;;;13.27;9.68;;;;;;;;;;6078345;29;20099;-74
2021/04/23 17:13:56;;;;;;;13.57;9.98;;;;;;;;;;6078146;29;20734;-74
2021/04/23 17:16:58;;;;;;;11.40;9.82;;;;;;;;;;6077633;29;20084;-74
2021/04/23 17:19:59;;;;;;;12.18;8.43;;;;;;;;;;6079864;29;20048;-74
2021/04/23 17:23:00;;;;;;;16.67;10.57;;;;;;;;;;6077260;29;20071;-74
2021/04/23 17:26:03;;;;;;;15.30;9.75;;;;;;;;;;6079892;29;20056;-74
2021/04/23 17:29:07;;;;;;;16.17;11.00;;;;;;;;;;6080164;29;20136;-74
2021/04/23 17:32:08;;;;;;;12.15;9.52;;;;;;;;;;6082435;29;20096;-74
2021/04/23 17:35:11;;;;;;;14.57;10.25;;;;;;;;;;6089235;29;20135;-75
2021/04/23 17:38:12;;;;;;;16.40;10.75;;;;;;;;;;6092436;29;20738;-74
2021/04/23 17:41:14;;;;;;;12.05;10.23;;;;;;;;;;6092810;29;20086;-74
2021/04/23 17:44:15;;;;;;;13.02;10.60;;;;;;;;;;6085287;29;20528;-75
2021/04/23 17:47:16;;;;;;;21.00;10.25;;;;;;;;;;6087045;29;20099;-74
2021/04/23 17:50:19;;;;;;;14.63;11.40;;;;;;;;;;6089917;29;20574;-75
2021/04/23 17:53:20;;;;;;;20.02;10.70;;;;;;;;;;6088740;29;20063;-73